createdAt,value
2022-10-12T00:00:33.836Z,101226.03
2022-10-12T00:05:36.651Z,101221.13
2022-10-12T00:10:41.961Z,101230.09
2022-10-12T00:15:46.093Z,101221.75
2022-10-12T00:21:01.556Z,101218.66
2022-10-12T00:26:05.724Z,101221.56
2022-10-12T00:31:10.949Z,101222.84
2022-10-12T00:36:15.360Z,101226.88
2022-10-12T00:41:19.729Z,101220.06
2022-10-12T00:46:27.839Z,101222.59
2022-10-12T00:51:30.469Z,101223.94
2022-10-12T00:56:34.705Z,101225.34
2022-10-12T01:01:39.533Z,101221.47
2022-10-12T01:06:42.433Z,101221.59
2022-10-12T01:11:45.407Z,101219.38
2022-10-12T01:16:53.681Z,101221.47
2022-10-12T01:22:02.336Z,101218.06
2022-10-12T01:27:19.837Z,101216.72
2022-10-12T01:32:25.774Z,101207.41
2022-10-12T01:37:33.529Z,101216.59
2022-10-12T01:42:40.460Z,101205.66
2022-10-12T01:47:48.274Z,101211.81
2022-10-12T01:52:59.651Z,101210.47
2022-10-12T01:58:13.133Z,101206.28
2022-10-12T02:03:21.456Z,101209.00
2022-10-12T02:08:26.084Z,101196.97
2022-10-12T02:13:31.696Z,101213.28
2022-10-12T02:18:36.715Z,101208.78
2022-10-12T02:23:39.729Z,101208.47
2022-10-12T02:28:44.650Z,101208.69
2022-10-12T02:33:52.695Z,101210.38
2022-10-12T02:38:59.693Z,101209.00
2022-10-12T02:44:03.975Z,101196.25
2022-10-12T02:49:08.481Z,101197.41
2022-10-12T02:54:11.445Z,101186.34
2022-10-12T02:59:14.460Z,101176.63
2022-10-12T03:04:18.406Z,101185.50
2022-10-12T03:09:21.026Z,101190.91
2022-10-12T03:14:26.777Z,101189.03
2022-10-12T03:19:30.894Z,101195.09
2022-10-12T03:24:34.023Z,101188.00
2022-10-12T03:29:36.628Z,101186.31
2022-10-12T03:34:40.555Z,101187.69
2022-10-12T03:39:43.158Z,101179.66
2022-10-12T03:44:45.790Z,101175.47
2022-10-12T03:49:49.796Z,101169.75
2022-10-12T03:54:52.370Z,101167.09
2022-10-12T03:59:54.981Z,101166.56
2022-10-12T04:04:59.312Z,101167.19
2022-10-12T04:10:01.955Z,101177.00
2022-10-12T04:15:05.059Z,101179.59
2022-10-12T04:20:11.694Z,101175.63
2022-10-12T04:25:14.737Z,101176.56
2022-10-12T04:30:17.598Z,101176.69
2022-10-12T04:35:21.695Z,101180.22
2022-10-12T04:40:24.440Z,101174.94
2022-10-12T04:45:27.090Z,101177.31
2022-10-12T04:50:31.132Z,101179.16
2022-10-12T04:55:34.020Z,101178.97
2022-10-12T05:00:36.688Z,101176.75
2022-10-12T05:05:40.772Z,101179.84
2022-10-12T05:10:43.400Z,101170.78
2022-10-12T05:15:46.308Z,101175.84
2022-10-12T05:20:54.517Z,101180.00
2022-10-12T05:25:59.413Z,101171.66
2022-10-12T05:31:01.988Z,101174.25
2022-10-12T05:36:06.656Z,101172.50
2022-10-12T05:41:09.377Z,101171.13
2022-10-12T05:46:14.509Z,101171.13
2022-10-12T05:51:18.843Z,101172.88
2022-10-12T05:56:21.513Z,101176.84
2022-10-12T06:01:24.235Z,101173.38
2022-10-12T06:06:28.331Z,101183.00
2022-10-12T06:11:34.042Z,101180.94
2022-10-12T06:16:38.997Z,101182.22
2022-10-12T06:21:42.962Z,101185.44
2022-10-12T06:26:45.640Z,101188.28
2022-10-12T06:31:51.608Z,101189.84
2022-10-12T06:36:59.541Z,101193.00
2022-10-12T06:42:04.650Z,101193.75
2022-10-12T06:47:07.286Z,101197.94
2022-10-12T06:52:11.302Z,101195.13
2022-10-12T06:57:13.932Z,101198.34
2022-10-12T07:02:16.559Z,101190.06
2022-10-12T07:07:21.070Z,101186.50
2022-10-12T07:12:23.689Z,101195.16
2022-10-12T07:17:26.294Z,101193.34
2022-10-12T07:22:30.362Z,101196.75
2022-10-12T07:27:32.932Z,101195.88
2022-10-12T07:32:35.586Z,101192.72
2022-10-12T07:37:39.851Z,101199.78
2022-10-12T07:43:11.614Z,101200.44
2022-10-12T07:48:05.662Z,101207.38
2022-10-12T07:53:09.759Z,101201.34
2022-10-12T07:58:13.006Z,101207.34
2022-10-12T08:03:16.710Z,101206.34
2022-10-12T08:08:20.955Z,101204.59
2022-10-12T08:13:23.563Z,101196.75
2022-10-12T08:18:26.296Z,101205.59
2022-10-12T08:23:30.326Z,101194.50
2022-10-12T08:28:33.481Z,101189.63
2022-10-12T08:33:36.231Z,101193.44
2022-10-12T08:38:40.275Z,101178.81
2022-10-12T08:43:52.298Z,101178.44
2022-10-12T08:49:00.573Z,101178.38
2022-10-12T08:54:06.943Z,101172.44
2022-10-12T08:59:10.918Z,101168.56
2022-10-12T09:04:21.167Z,101160.66
2022-10-12T09:09:41.635Z,101158.00
2022-10-12T09:14:48.253Z,101151.19
2022-10-12T09:19:56.866Z,101144.06
2022-10-12T09:25:02.275Z,101138.31
2022-10-12T09:30:06.042Z,101150.41
2022-10-12T09:35:08.944Z,101148.47
2022-10-12T09:40:21.294Z,101147.28
2022-10-12T09:45:24.263Z,101129.97
2022-10-12T09:50:40.315Z,101136.59
2022-10-12T09:55:53.663Z,101133.41
2022-10-12T10:01:18.971Z,101133.28
2022-10-12T10:06:25.026Z,101122.53
2022-10-12T10:11:30.991Z,101121.84
2022-10-12T10:16:33.641Z,101124.97
2022-10-12T10:21:39.590Z,101112.22
2022-10-12T10:26:54.822Z,101116.47
2022-10-12T10:32:11.824Z,101108.72
2022-10-12T10:37:16.117Z,101117.53
2022-10-12T10:42:21.333Z,101115.09
2022-10-12T10:47:24.065Z,101105.44
2022-10-12T10:52:29.599Z,101104.50
2022-10-12T10:57:34.983Z,101098.16
2022-10-12T11:02:42.456Z,101102.25
2022-10-12T11:07:48.937Z,101098.13
2022-10-12T11:12:57.300Z,101085.28
2022-10-12T11:18:04.666Z,101078.28
2022-10-12T11:23:20.351Z,101071.41
2022-10-12T11:28:25.928Z,101070.91
2022-10-12T11:33:35.079Z,101059.41
2022-10-12T11:38:42.195Z,101058.94
2022-10-12T11:43:50.630Z,101049.94
2022-10-12T11:48:57.588Z,101046.09
2022-10-12T11:54:04.034Z,101037.19
2022-10-12T11:59:14.853Z,101029.09
2022-10-12T12:04:41.322Z,101030.19
2022-10-12T12:09:50.277Z,101015.88
2022-10-12T12:15:22.266Z,101014.03
2022-10-12T12:20:57.787Z,101010.03
2022-10-12T12:26:16.822Z,100995.03
2022-10-12T12:31:28.747Z,100987.84
2022-10-12T12:36:33.949Z,100991.72
2022-10-12T12:41:56.378Z,100984.78
2022-10-12T12:52:45.076Z,100972.03
2022-10-12T12:57:57.909Z,100966.16
2022-10-12T13:03:32.039Z,100955.78
2022-10-12T13:08:43.012Z,100963.56
2022-10-12T13:13:52.251Z,100951.97
2022-10-12T13:19:00.283Z,100949.78
2022-10-12T13:24:06.660Z,100941.50
2022-10-12T13:29:17.451Z,100941.09
2022-10-12T13:34:24.089Z,100946.69
2022-10-12T13:39:27.267Z,100944.66
2022-10-12T13:44:31.277Z,100937.75
2022-10-12T13:49:42.155Z,100923.97
2022-10-12T13:54:46.342Z,100922.84
2022-10-12T13:59:52.435Z,100924.28
2022-10-12T14:04:57.490Z,100920.22
2022-10-12T14:10:04.666Z,100907.34
2022-10-12T14:15:08.092Z,100907.56
2022-10-12T14:20:25.985Z,100902.66
2022-10-12T14:25:30.073Z,100904.06
2022-10-12T14:30:34.652Z,100894.16
2022-10-12T14:35:42.056Z,100899.50
2022-10-12T14:40:44.941Z,100895.06
2022-10-12T14:45:47.567Z,100900.13
2022-10-12T14:50:51.723Z,100886.25
2022-10-12T14:55:54.796Z,100889.50
2022-10-12T15:00:58.118Z,100888.75
2022-10-12T15:06:02.286Z,100885.47
2022-10-12T15:11:05.276Z,100891.91
2022-10-12T15:16:16.614Z,100879.56
2022-10-12T15:21:20.979Z,100881.13
2022-10-12T15:26:23.611Z,100869.88
2022-10-12T15:31:26.364Z,100870.69
2022-10-12T15:36:30.346Z,100873.38
2022-10-12T15:41:33.077Z,100870.28
2022-10-12T15:46:35.712Z,100864.00
2022-10-12T15:51:41.325Z,100856.03
2022-10-12T15:56:44.276Z,100857.69
2022-10-12T16:01:46.927Z,100860.41
2022-10-12T16:06:50.836Z,100859.63
2022-10-12T16:11:53.454Z,100865.84
2022-10-12T16:16:56.063Z,100868.84
2022-10-12T16:22:01.158Z,100859.72
2022-10-12T16:27:03.754Z,100867.09
2022-10-12T16:32:06.493Z,100857.75
2022-10-12T16:37:10.526Z,100868.47
2022-10-12T16:42:13.283Z,100865.63
2022-10-12T16:47:16.430Z,100868.50
2022-10-12T16:52:20.613Z,100868.94
2022-10-12T16:57:24.632Z,100867.19
2022-10-12T17:02:28.268Z,100871.75
2022-10-12T17:07:32.542Z,100871.47
2022-10-12T17:12:35.185Z,100866.69
2022-10-12T17:17:37.773Z,100861.63
2022-10-12T17:22:41.752Z,100863.75
2022-10-12T17:27:44.384Z,100860.59
2022-10-12T17:32:46.971Z,100861.19
2022-10-12T17:37:50.994Z,100867.75
2022-10-12T17:42:53.651Z,100853.41
2022-10-12T17:47:56.307Z,100852.75
2022-10-12T17:53:00.705Z,100850.47
2022-10-12T17:58:03.269Z,100843.16
2022-10-12T18:03:06.116Z,100853.72
2022-10-12T18:08:10.193Z,100850.97
2022-10-12T18:13:12.977Z,100841.16
2022-10-12T18:18:15.642Z,100840.13
2022-10-12T18:23:20.135Z,100846.56
2022-10-12T18:28:22.960Z,100840.50
2022-10-12T18:33:26.034Z,100835.69
2022-10-12T18:38:30.027Z,100843.44
2022-10-12T18:43:32.927Z,100834.47
2022-10-12T18:48:35.703Z,100844.31
2022-10-12T18:53:39.685Z,100844.72
2022-10-12T18:58:42.965Z,100840.84
2022-10-12T19:03:46.190Z,100840.28
2022-10-12T19:08:50.830Z,100839.63
2022-10-12T19:13:54.292Z,100832.47
2022-10-12T19:18:57.509Z,100848.31
2022-10-12T19:24:04.631Z,100840.44
2022-10-12T19:29:07.374Z,100830.03
2022-10-12T19:34:12.411Z,100834.06
2022-10-12T19:39:18.042Z,100837.53
2022-10-12T19:44:20.734Z,100828.25
2022-10-12T19:49:23.353Z,100832.13
2022-10-12T19:54:27.364Z,100825.22
2022-10-12T19:59:30.199Z,100816.50
2022-10-12T20:04:32.851Z,100809.72
2022-10-12T20:09:36.909Z,100818.31
2022-10-12T20:14:39.614Z,100803.94
2022-10-12T20:19:42.412Z,100806.84
2022-10-12T20:24:46.582Z,100802.69
2022-10-12T20:29:49.283Z,100799.78
2022-10-12T20:34:52.647Z,100796.59
2022-10-12T20:39:56.889Z,100791.91
2022-10-12T20:44:59.523Z,100790.34
2022-10-12T20:50:02.308Z,100788.13
2022-10-12T20:55:07.628Z,100785.75
2022-10-12T21:00:10.987Z,100782.69
2022-10-12T21:05:13.563Z,100794.44
2022-10-12T21:10:17.804Z,100788.38
2022-10-12T21:15:20.552Z,100789.63
2022-10-12T21:20:23.224Z,100784.38
2022-10-12T21:25:28.370Z,100784.13
2022-10-12T21:30:31.004Z,100779.16
2022-10-12T21:35:33.703Z,100776.69
2022-10-12T21:40:37.883Z,100784.31
2022-10-12T21:45:40.462Z,100793.59
2022-10-12T21:50:43.098Z,100794.13
2022-10-12T21:55:47.034Z,100799.28
2022-10-12T22:00:49.702Z,100794.81
2022-10-12T22:05:52.328Z,100794.44
2022-10-12T22:10:57.039Z,100790.16
2022-10-12T22:16:03.475Z,100793.06
2022-10-12T22:21:08.187Z,100790.16
2022-10-12T22:26:16.139Z,100789.84
2022-10-12T22:31:29.019Z,100785.41
2022-10-12T22:36:32.097Z,100781.34
2022-10-12T22:41:39.382Z,100784.81
2022-10-12T22:46:42.135Z,100777.91
2022-10-12T22:51:45.263Z,100773.53
2022-10-12T22:56:51.212Z,100776.31
2022-10-12T23:01:53.876Z,100772.19
2022-10-12T23:06:58.237Z,100770.78
2022-10-12T23:12:03.959Z,100772.56
2022-10-12T23:17:06.793Z,100769.91
2022-10-12T23:22:09.477Z,100765.06
2022-10-12T23:27:13.655Z,100763.53
2022-10-12T23:32:20.924Z,100771.09
2022-10-12T23:37:23.786Z,100774.69
2022-10-12T23:42:28.286Z,100779.44
2022-10-12T23:47:31.177Z,100765.19
2022-10-12T23:52:33.840Z,100765.88
2022-10-12T23:57:46.713Z,100771.91
